Aviation Digital Data Service (ADDS)

Output produced by METARs form (1130 UTC 07 October 2022)
found at http://www.aviationweather.gov/metar/data/
 
VTBS 071100Z VRB01KT 7000 -RA FEW020 BKN080 25/24 Q1010 RETS NOSIG
VTBS 071030Z 15003KT 100V230 8000 -TSRA FEW007 FEW020CB BKN080 25/24 Q1010 BECMG TL1130 NSW
VTBS 071000Z 12003KT 040V180 8000 -TSRA FEW007 SCT020CB SCT030 BKN080 25/24 Q1009 RERA TEMPO FM1010 TL1050 4000 TSRA
VTBS 070930Z 05007KT 010V090 5000 TSRA FEW007 SCT020CB SCT030 BKN080 25/24 Q1008 TEMPO FM0940 TL1000 3000 TSRA
VTBS 070900Z 05008KT 020V090 5000 TSRA FEW007 SCT015CB SCT030 BKN080 24/24 Q1008 RERA TEMPO TL0920 3000 TSRA
VTBS 070830Z 06014G24KT 030V120 8000 -TSRA SCT015CB SCT030 BKN080 29/25 Q1008 WS ALL RWY TEMPO TL0910 4000 TSRA
VTBS 070800Z VRB06KT 9000 -RA FEW020CB SCT040 31/25 Q1007 WS ALL RWY TEMPO FM0810 TL0830 15015G25KT 4000 TSRA
VTBS 070730Z 13003KT 070V240 9999 FEW020CB 32/24 Q1007 NOSIG
VTBS 070700Z 12005KT 060V170 9999 FEW020 32/24 Q1008 NOSIG
VTBS 070630Z 09005KT 030V150 9999 FEW020 32/25 Q1008 NOSIG
VTBS 070600Z 14003KT 050V200 9999 FEW020 31/24 Q1009 NOSIG
VTBS 070530Z 09005KT 020V130 9999 FEW020 31/24 Q1010 NOSIG
VTBS 070500Z 07005KT 020V120 9999 FEW020 31/25 Q1010 NOSIG
VTBS 070430Z 08005KT 050V110 9999 SCT020 30/25 Q1011 NOSIG
VTBS 070400Z 08006KT 030V120 9999 SCT020 30/25 Q1012 NOSIG
VTBS 070330Z 09006KT 060V120 9999 SCT020 30/25 Q1012 NOSIG
VTBS 070300Z 05006KT 010V090 9999 FEW010 SCT020 29/25 Q1012 NOSIG
VTBS 070230Z 05006KT 010V070 9999 FEW010 SCT020 29/25 Q1012 NOSIG
VTBS 070200Z 03006KT 360V080 9999 FEW010 SCT020 28/25 Q1012 NOSIG
VTBS 070130Z VRB04KT 9999 SCT010 28/24 Q1012 NOSIG
VTBS 070100Z 02005KT 9999 FEW010 SCT040 27/24 Q1011 NOSIG
VTBS 070030Z 02005KT 9000 FEW010 SCT040 26/24 Q1011 NOSIG
VTBS 070000Z 02005KT 8000 FEW020 SCT040 26/24 Q1011 NOSIG
VTBS 062330Z 01004KT 8000 FEW020 25/23 Q1010 NOSIG
VTBS 062300Z 02004KT 9000 FEW020 25/23 Q1010 NOSIG
VTBS 062230Z 02004KT 9999 FEW020 25/23 Q1010 NOSIG
VTBS 062200Z 02005KT 9999 FEW020 25/23 Q1010 NOSIG
VTBS 062130Z 02003KT 9999 FEW020 25/23 Q1010 NOSIG
VTBS 062100Z 01003KT 9999 FEW020 25/23 Q1010 NOSIG
VTBS 062030Z 01003KT 9999 FEW020 25/23 Q1010 NOSIG
VTBS 062000Z 03003KT 9999 FEW020 25/23 Q1010 NOSIG
VTBS 061930Z VRB01KT 9999 FEW020 25/23 Q1010 NOSIG
VTBS 061900Z 33003KT 9999 FEW008 25/23 Q1010 NOSIG
VTBS 061830Z 03002KT 9999 SCT030 25/23 Q1011 NOSIG
VTBS 061800Z 36003KT 9999 FEW007 25/23 Q1011 NOSIG
VTBS 061730Z 01004KT 9999 FEW007 25/23 Q1011 NOSIG
VTBS 061700Z 35003KT 9999 FEW007 25/23 Q1011 NOSIG
VTBS 061630Z 33002KT 9999 FEW020 25/23 Q1012 NOSIG
VTBS 061600Z 23002KT 9999 FEW020 25/23 Q1012 NOSIG
VTBS 061530Z 22003KT 9999 FEW020 26/24 Q1012 NOSIG
VTBS 061500Z 15003KT 110V210 9000 -RA FEW020 BKN100 25/23 Q1012 NOSIG
VTBS 061430Z 11006KT 070V180 7000 -RA FEW008 BKN100 26/23 Q1012 NOSIG
VTBS 061400Z 12008KT 100V160 7000 -RA FEW008 BKN100 26/24 Q1012 NOSIG
VTBS 061330Z 12006KT 100V160 8000 -RA FEW008 BKN100 26/24 Q1012 RETS NOSIG
VTBS 061300Z 12007KT 100V180 7000 -TSRA SCT020CB BKN030 BKN100 27/24 Q1011 TEMPO TL1340 4500 TSRA
VTBS 061230Z 14006KT 110V190 8000 -TSRA SCT020CB BKN030 BKN100 27/23 Q1011 TEMPO TL1330 4000 TSRA
VTBS 061200Z 19004KT 9999 FEW020CB SCT040 BKN100 26/23 Q1010 NOSIG
TAF VTBS 070500Z 0706/0812 08008KT 9000 FEW020 SCT080 
     TEMPO 0707/0713 09010G25KT 4000 TSRA FEW018CB SCT035 BKN080 
     BECMG 0717/0719 01005KT 
     BECMG 0800/0802 09008KT